Time;durP1;ratioP1;P1;durP2;ratioP2;P2;SDS_P1;SDS_P2;PMS_P1;PMS_P2;Temp;Humidity;BMP_temperature;BMP_pressure;BME280_temperature;BME280_humidity;BME280_pressure;Samples;Min_cycle;Max_cycle;Signal;HPM_P1;HPM_P2
2023/07/10 00:02:32;;;;;;;11.05;7.03;;;;;19.40;96708.00;;;;8220025;28;20258;-71
2023/07/10 00:06:35;;;;;;;11.35;6.68;;;;;19.30;96706.00;;;;8217420;28;20234;-70
2023/07/10 00:10:38;;;;;;;13.15;6.88;;;;;19.40;96701.00;;;;8204067;28;20236;-71
2023/07/10 00:14:43;;;;;;;11.80;6.03;;;;;19.40;96701.00;;;;8214163;28;20296;-70
2023/07/10 00:18:50;;;;;;;6.43;5.68;;;;;19.50;96701.00;;;;8218875;28;20640;-71
2023/07/10 00:22:54;;;;;;;11.02;5.95;;;;;19.40;96688.00;;;;8212553;28;20211;-71
2023/07/10 00:27:01;;;;;;;8.07;5.80;;;;;19.30;96701.00;;;;8207492;28;20704;-71
2023/07/10 00:31:08;;;;;;;10.27;5.75;;;;;19.20;96697.00;;;;8222203;28;20673;-71
2023/07/10 00:35:16;;;;;;;8.45;6.00;;;;;19.20;96697.00;;;;8217040;28;20217;-71
2023/07/10 00:39:25;;;;;;;8.48;5.57;;;;;19.30;96699.00;;;;8207088;28;20861;-71
2023/07/10 00:43:34;;;;;;;11.68;6.35;;;;;19.30;96701.00;;;;8223601;28;20211;-71
2023/07/10 00:47:43;;;;;;;11.68;5.90;;;;;19.30;96700.00;;;;8213354;28;20235;-71
2023/07/10 00:52:02;;;;;;;8.23;5.85;;;;;19.30;96698.00;;;;8216565;28;20237;-71
2023/07/10 00:56:12;;;;;;;10.65;5.93;;;;;19.20;96701.00;;;;8218865;28;20311;-71
2023/07/10 01:00:21;;;;;;;8.07;5.85;;;;;19.20;96690.00;;;;8207628;28;20629;-70
2023/07/10 01:04:35;;;;;;;7.90;5.70;;;;;19.10;96690.00;;;;8220441;28;20239;-71
2023/07/10 01:08:43;;;;;;;11.57;5.88;;;;;18.90;96682.00;;;;8217667;28;20207;-71
2023/07/10 01:12:48;;;;;;;8.98;6.03;;;;;18.90;96685.00;;;;8213136;28;20238;-71
2023/07/10 01:16:54;;;;;;;9.35;6.45;;;;;18.90;96675.00;;;;8209117;28;20670;-71
2023/07/10 01:21:24;;;;;;;9.93;6.05;;;;;18.90;96666.00;;;;8206594;28;20574;-70
2023/07/10 01:25:36;;;;;;;14.15;7.20;;;;;18.80;96672.00;;;;8217240;28;20329;-70
2023/07/10 01:29:43;;;;;;;9.82;5.40;;;;;18.80;96678.00;;;;8215565;28;20240;-70
2023/07/10 01:33:50;;;;;;;13.68;6.53;;;;;18.80;96667.00;;;;8215377;28;20295;-70
2023/07/10 01:37:57;;;;;;;8.60;6.43;;;;;18.80;96673.00;;;;8222973;28;20207;-69
2023/07/10 01:42:00;;;;;;;10.25;5.55;;;;;18.80;96675.00;;;;8214463;28;20242;-70
2023/07/10 01:46:21;;;;;;;13.48;7.22;;;;;18.80;96668.00;;;;8210430;28;20241;-70
2023/07/10 01:50:25;;;;;;;12.23;6.18;;;;;18.80;96670.00;;;;8221677;28;20238;-71
2023/07/10 01:54:33;;;;;;;9.35;5.88;;;;;18.70;96653.00;;;;8217759;28;20301;-70
2023/07/10 01:58:36;;;;;;;13.30;6.20;;;;;18.50;96653.00;;;;8203635;28;20327;-70
2023/07/10 02:02:39;;;;;;;11.73;6.20;;;;;18.40;96650.00;;;;8218020;28;20927;-70
2023/07/10 02:06:44;;;;;;;10.10;5.90;;;;;18.40;96656.00;;;;8205135;28;20231;-70
2023/07/10 02:10:49;;;;;;;12.48;6.40;;;;;18.30;96670.00;;;;8209082;28;20204;-70
2023/07/10 02:14:56;;;;;;;10.48;6.07;;;;;18.30;96682.00;;;;8217779;28;20225;-70
2023/07/10 02:19:04;;;;;;;10.48;6.20;;;;;18.30;96677.00;;;;8202930;28;20287;-70
2023/07/10 02:23:07;;;;;;;9.20;6.45;;;;;18.40;96679.00;;;;8217109;28;20208;-71
2023/07/10 02:27:16;;;;;;;10.95;6.72;;;;;18.40;96683.00;;;;8206499;28;20329;-71
2023/07/10 02:31:20;;;;;;;31.50;7.80;;;;;18.30;96698.00;;;;8213050;28;20253;-70
2023/07/10 02:35:23;;;;;;;12.68;6.13;;;;;18.30;96699.00;;;;8213192;28;20211;-70
2023/07/10 02:39:32;;;;;;;14.25;6.55;;;;;18.30;96701.00;;;;8200234;28;20820;-70
2023/07/10 02:43:37;;;;;;;11.15;5.80;;;;;18.40;96699.00;;;;8197052;28;20207;-71
2023/07/10 02:47:42;;;;;;;7.68;5.95;;;;;18.40;96704.00;;;;8211933;28;20239;-70
2023/07/10 02:51:45;;;;;;;10.80;6.68;;;;;18.40;96708.00;;;;8212240;28;20287;-71
2023/07/10 02:55:48;;;;;;;8.70;6.30;;;;;18.40;96707.00;;;;8217338;28;20299;-70
2023/07/10 02:59:56;;;;;;;11.63;6.20;;;;;18.40;96716.00;;;;8214911;28;20214;-70
2023/07/10 03:04:05;;;;;;;9.80;6.53;;;;;18.30;96707.00;;;;8361722;22;20232;-70
2023/07/10 03:08:11;;;;;;;11.23;7.25;;;;;18.30;96693.00;;;;8339974;28;20236;-70
2023/07/10 03:12:14;;;;;;;14.27;6.90;;;;;18.30;96694.00;;;;8342448;28;20212;-70
2023/07/10 03:16:21;;;;;;;10.18;6.43;;;;;18.10;96684.00;;;;8345709;28;20296;-70
2023/07/10 03:20:25;;;;;;;11.05;7.07;;;;;18.10;96669.00;;;;8341337;28;20319;-71
2023/07/10 03:24:37;;;;;;;12.25;7.30;;;;;18.10;96670.00;;;;8342707;28;20256;-70
2023/07/10 03:28:40;;;;;;;10.43;7.72;;;;;18.00;96672.00;;;;8342053;28;20237;-71
2023/07/10 03:32:46;;;;;;;12.45;7.55;;;;;18.00;96661.00;;;;8344254;28;20204;-70
2023/07/10 03:36:53;;;;;;;10.55;6.35;;;;;18.00;96661.00;;;;8342907;28;20196;-70
2023/07/10 03:40:58;;;;;;;8.60;6.80;;;;;18.10;96664.00;;;;8342199;28;20205;-71
2023/07/10 03:45:04;;;;;;;9.38;6.35;;;;;18.20;96669.00;;;;8342651;28;20219;-71
2023/07/10 03:49:12;;;;;;;10.27;6.65;;;;;18.30;96667.00;;;;8333597;28;20232;-71
2023/07/10 03:53:17;;;;;;;11.30;6.20;;;;;18.40;96665.00;;;;8343123;28;20204;-70
2023/07/10 03:57:20;;;;;;;11.57;7.78;;;;;18.60;96671.00;;;;8345089;28;20208;-71
2023/07/10 04:01:28;;;;;;;12.10;7.22;;;;;18.90;96674.00;;;;8343760;28;20209;-70
2023/07/10 04:05:33;;;;;;;13.88;6.82;;;;;19.20;96677.00;;;;8325222;28;20271;-69
2023/07/10 04:09:38;;;;;;;11.63;6.85;;;;;19.50;96673.00;;;;8325236;28;20259;-71
2023/07/10 04:13:52;;;;;;;9.05;6.60;;;;;19.80;96677.00;;;;8327256;28;20328;-71
2023/07/10 04:17:55;;;;;;;10.52;7.25;;;;;20.10;96674.00;;;;8322090;28;20201;-71
2023/07/10 04:22:00;;;;;;;10.07;6.82;;;;;20.40;96677.00;;;;8323353;28;20207;-71
2023/07/10 04:26:05;;;;;;;11.02;6.85;;;;;20.90;96677.00;;;;8327937;28;20232;-71
2023/07/10 04:30:09;;;;;;;12.25;7.10;;;;;21.20;96685.00;;;;8326552;28;20204;-71
2023/07/10 04:34:20;;;;;;;8.20;6.43;;;;;21.50;96686.00;;;;8324401;28;20211;-71
2023/07/10 04:38:29;;;;;;;13.25;6.70;;;;;21.80;96682.00;;;;8325094;28;20292;-70
2023/07/10 04:42:35;;;;;;;9.52;6.97;;;;;22.00;96683.00;;;;8326376;28;20573;-71
2023/07/10 04:46:41;;;;;;;14.38;6.97;;;;;22.00;96688.00;;;;8313440;28;20229;-70
2023/07/10 04:50:48;;;;;;;10.52;6.85;;;;;22.10;96693.00;;;;8335181;28;21862;-71
2023/07/10 04:54:53;;;;;;;11.55;6.95;;;;;22.20;96703.00;;;;8328235;28;20205;-71
2023/07/10 04:58:59;;;;;;;11.95;7.90;;;;;22.20;96701.00;;;;8327370;28;20304;-71
2023/07/10 05:03:02;;;;;;;13.85;7.20;;;;;22.30;96703.00;;;;8337004;28;20279;-71
2023/07/10 05:07:08;;;;;;;13.93;8.07;;;;;22.50;96701.00;;;;8345366;28;20240;-71
2023/07/10 05:11:13;;;;;;;12.23;7.85;;;;;22.80;96694.00;;;;8338710;28;20248;-74
2023/07/10 05:15:19;;;;;;;12.43;7.68;;;;;23.00;96689.00;;;;8343074;28;20209;-76
2023/07/10 05:19:26;;;;;;;10.70;7.00;;;;;23.40;96686.00;;;;8345127;28;20239;-75
2023/07/10 05:23:30;;;;;;;13.05;7.03;;;;;23.60;96698.00;;;;8343230;28;20633;-75
2023/07/10 05:27:34;;;;;;;14.45;7.35;;;;;24.00;96699.00;;;;8343296;28;20229;-74
2023/07/10 05:31:38;;;;;;;14.23;7.57;;;;;24.50;96713.00;;;;8321792;28;20650;-75
2023/07/10 05:35:50;;;;;;;12.02;7.57;;;;;24.90;96714.00;;;;8333422;28;20209;-74
2023/07/10 05:39:56;;;;;;;12.80;6.82;;;;;25.40;96726.00;;;;8341843;28;20212;-75
2023/07/10 05:44:01;;;;;;;12.35;6.32;;;;;25.70;96717.00;;;;8329123;28;20721;-75
2023/07/10 05:48:07;;;;;;;10.98;7.07;;;;;26.20;96718.00;;;;8321737;28;20263;-73
2023/07/10 05:52:12;;;;;;;12.25;6.75;;;;;26.70;96723.00;;;;8340552;28;20636;-69
2023/07/10 05:56:15;;;;;;;10.45;6.43;;;;;27.00;96723.00;;;;8338600;28;20204;-74
2023/07/10 06:00:20;;;;;;;9.88;7.45;;;;;27.20;96725.00;;;;8338466;28;20742;-72
2023/07/10 06:04:25;;;;;;;11.93;6.57;;;;;27.50;96723.00;;;;8343207;28;20295;-74
2023/07/10 06:08:32;;;;;;;10.52;6.63;;;;;27.60;96732.00;;;;8347061;28;20301;-74
2023/07/10 06:12:36;;;;;;;8.95;6.50;;;;;27.80;96721.00;;;;8338212;28;20212;-76
2023/07/10 06:16:42;;;;;;;9.55;6.60;;;;;28.50;96711.00;;;;8344329;28;20326;-73
2023/07/10 06:20:51;;;;;;;11.20;6.20;;;;;29.10;96726.00;;;;8343195;28;20714;-74
2023/07/10 06:24:55;;;;;;;7.75;6.13;;;;;29.60;96734.00;;;;8340014;28;20235;-74
2023/07/10 06:29:00;;;;;;;7.38;5.90;;;;;29.50;96735.00;;;;8340760;28;20319;-75
2023/07/10 06:33:04;;;;;;;12.05;7.00;;;;;29.10;96741.00;;;;8334160;28;20269;-74
2023/07/10 06:37:08;;;;;;;8.18;6.22;;;;;28.80;96731.00;;;;8342620;28;20204;-76
2023/07/10 06:41:12;;;;;;;10.90;6.82;;;;;28.40;96746.00;;;;8348124;28;20299;-73
2023/07/10 06:45:18;;;;;;;10.35;7.05;;;;;28.00;96753.00;;;;8345260;28;20214;-75
2023/07/10 06:49:23;;;;;;;11.23;6.53;;;;;27.70;96750.00;;;;8341948;28;20323;-75
2023/07/10 06:53:26;;;;;;;9.73;6.43;;;;;27.60;96741.00;;;;8340978;28;20233;-74
2023/07/10 06:57:32;;;;;;;10.20;7.18;;;;;27.50;96735.00;;;;8350908;28;20250;-73
2023/07/10 07:01:37;;;;;;;10.32;7.13;;;;;27.50;96736.00;;;;8344788;28;21031;-74
2023/07/10 07:05:43;;;;;;;10.18;6.90;;;;;27.40;96747.00;;;;8349554;28;20240;-74
2023/07/10 07:09:48;;;;;;;9.57;6.72;;;;;27.30;96747.00;;;;8344147;28;20237;-74
2023/07/10 07:13:56;;;;;;;10.70;6.88;;;;;27.10;96767.00;;;;8340089;28;20320;-74
2023/07/10 07:18:01;;;;;;;12.63;7.13;;;;;27.00;96769.00;;;;8345192;28;20684;-74
2023/07/10 07:22:09;;;;;;;9.82;6.72;;;;;26.80;96773.00;;;;8346845;28;20201;-74
2023/07/10 07:26:15;;;;;;;10.50;6.45;;;;;26.70;96768.00;;;;8339833;28;20205;-73
2023/07/10 07:30:20;;;;;;;9.98;7.00;;;;;26.70;96762.00;;;;8346684;28;20235;-72
2023/07/10 07:34:23;;;;;;;9.75;7.10;;;;;26.70;96747.00;;;;8340984;28;20730;-72
2023/07/10 07:38:31;;;;;;;8.98;6.65;;;;;26.70;96749.00;;;;8343292;28;20200;-72
2023/07/10 07:42:35;;;;;;;10.25;6.43;;;;;26.60;96740.00;;;;8342145;28;20197;-72
2023/07/10 07:46:38;;;;;;;12.07;7.10;;;;;26.40;96824.00;;;;8344625;28;20239;-72
2023/07/10 07:50:42;;;;;;;13.88;6.50;;;;;26.00;96791.00;;;;8339271;28;20279;-72
2023/07/10 07:54:48;;;;;;;10.93;6.05;;;;;25.80;96832.00;;;;8335006;28;20236;-73
2023/07/10 07:58:54;;;;;;;13.02;6.05;;;;;25.70;96848.00;;;;8331042;28;20204;-72
2023/07/10 08:02:57;;;;;;;15.73;5.85;;;;;25.90;96814.00;;;;8333190;28;20228;-73
2023/07/10 08:07:01;;;;;;;12.25;5.25;;;;;26.40;96801.00;;;;8349795;28;20200;-73
2023/07/10 08:11:10;;;;;;;13.57;6.13;;;;;26.60;96805.00;;;;8342785;28;20626;-71
2023/07/10 08:15:13;;;;;;;11.85;5.57;;;;;24.90;96793.00;;;;8345664;28;20284;-67
2023/07/10 08:19:17;;;;;;;11.32;5.80;;;;;23.90;96789.00;;;;8336207;28;20697;-71
2023/07/10 08:23:24;;;;;;;15.57;6.40;;;;;23.10;96780.00;;;;8347461;28;20285;-64
2023/07/10 08:27:28;;;;;;;18.30;7.35;;;;;22.80;96777.00;;;;8348110;28;20289;-65
2023/07/10 08:31:34;;;;;;;13.50;7.55;;;;;22.60;96783.00;;;;8349385;28;20235;-66
2023/07/10 08:35:42;;;;;;;17.20;7.47;;;;;22.70;96798.00;;;;8351225;28;20284;-67
2023/07/10 08:39:50;;;;;;;13.60;6.85;;;;;22.70;96838.00;;;;8333080;28;20207;-68
2023/07/10 08:43:57;;;;;;;14.90;6.53;;;;;22.60;96851.00;;;;8344516;28;20429;-69
2023/07/10 08:48:09;;;;;;;13.80;6.20;;;;;22.30;96842.00;;;;8337877;28;20780;-67
2023/07/10 08:52:14;;;;;;;14.10;6.50;;;;;22.10;96843.00;;;;8346488;28;20825;-67
2023/07/10 08:56:26;;;;;;;12.93;6.40;;;;;22.20;96831.00;;;;8344856;28;20209;-68
2023/07/10 09:00:37;;;;;;;22.00;7.20;;;;;22.50;96851.00;;;;8341859;28;20292;-67
2023/07/10 09:04:42;;;;;;;15.27;6.80;;;;;22.60;96822.00;;;;8341504;28;20724;-67
2023/07/10 09:08:48;;;;;;;12.98;6.38;;;;;22.70;96811.00;;;;8338727;28;20271;-68
2023/07/10 09:12:54;;;;;;;9.82;5.88;;;;;22.90;96804.00;;;;8346876;28;20197;-69
2023/07/10 09:17:03;;;;;;;9.50;6.13;;;;;23.50;96815.00;;;;8341762;28;20662;-70
2023/07/10 09:21:19;;;;;;;12.20;6.25;;;;;23.90;96816.00;;;;8324317;28;20201;-70
2023/07/10 09:25:24;;;;;;;8.45;5.78;;;;;24.40;96810.00;;;;8334513;28;20263;-70
2023/07/10 09:29:31;;;;;;;14.63;5.60;;;;;24.70;96810.00;;;;8322583;28;20237;-71
2023/07/10 09:33:47;;;;;;;9.85;5.20;;;;;25.20;96814.00;;;;8342873;28;20672;-70
2023/07/10 09:37:53;;;;;;;11.40;5.57;;;;;26.10;96818.00;;;;8329846;28;20202;-70
2023/07/10 09:41:59;;;;;;;11.70;5.07;;;;;27.70;96817.00;;;;8343840;28;20645;-71
2023/07/10 09:46:02;;;;;;;10.02;5.13;;;;;29.40;96817.00;;;;8315475;28;20273;-72
2023/07/10 09:50:16;;;;;;;11.30;4.93;;;;;30.80;96802.00;;;;8340464;28;20300;-71
2023/07/10 09:54:19;;;;;;;8.77;4.97;;;;;31.90;96802.00;;;;8346784;28;20287;-72
2023/07/10 09:58:22;;;;;;;9.75;4.95;;;;;31.60;96803.00;;;;8343973;28;20201;-72
2023/07/10 10:02:33;;;;;;;7.05;4.65;;;;;31.60;96804.00;;;;8344937;28;20260;-74
2023/07/10 10:06:44;;;;;;;11.90;4.88;;;;;32.00;96809.00;;;;8340019;28;20205;-74
2023/07/10 10:11:02;;;;;;;15.20;4.82;;;;;32.00;96808.00;;;;8340887;28;20220;-78
2023/07/10 10:15:16;;;;;;;10.38;5.13;;;;;32.70;96812.00;;;;8345099;28;20235;-77
2023/07/10 10:19:25;;;;;;;6.22;4.88;;;;;33.60;96800.00;;;;8343361;28;20262;-74
2023/07/10 10:23:38;;;;;;;9.60;5.38;;;;;34.30;96786.00;;;;8351624;28;20658;-76
2023/07/10 10:27:48;;;;;;;10.00;5.60;;;;;35.40;96794.00;;;;8348421;28;20714;-78
2023/07/10 10:31:55;;;;;;;9.23;4.30;;;;;36.10;96785.00;;;;8350369;28;20581;-74
2023/07/10 10:36:05;;;;;;;8.57;5.05;;;;;36.70;96792.00;;;;8349231;28;20209;-76
2023/07/10 10:40:23;;;;;;;8.27;4.13;;;;;37.20;96794.00;;;;8338670;28;20335;-77
2023/07/10 10:44:47;;;;;;;10.80;5.15;;;;;37.20;96789.00;;;;8338867;28;20316;-74
2023/07/10 10:49:15;;;;;;;7.72;4.97;;;;;37.60;96788.00;;;;8342418;28;22148;-76
2023/07/10 10:53:39;;;;;;;7.57;5.30;;;;;37.40;96792.00;;;;8335719;28;20211;-79
2023/07/10 10:57:52;;;;;;;8.23;5.30;;;;;37.90;96784.00;;;;8342032;28;20198;-76
2023/07/10 11:02:02;;;;;;;12.93;5.13;;;;;38.00;96788.00;;;;8332730;28;20260;-77
2023/07/10 11:06:33;;;;;;;6.82;5.28;;;;;38.60;96781.00;;;;8343151;28;20208;-75
2023/07/10 11:10:40;;;;;;;8.05;5.00;;;;;38.90;96779.00;;;;8339297;28;20224;-76
2023/07/10 11:14:47;;;;;;;11.85;4.90;;;;;38.60;96775.00;;;;8344709;28;20642;-77
2023/07/10 11:18:50;;;;;;;7.97;4.65;;;;;38.60;96773.00;;;;8342044;28;20240;-74
2023/07/10 11:22:55;;;;;;;9.25;4.78;;;;;38.70;96762.00;;;;8346286;28;20207;-74
2023/07/10 11:27:02;;;;;;;8.55;5.20;;;;;38.30;96756.00;;;;8340911;28;20715;-73
2023/07/10 11:31:37;;;;;;;7.30;4.85;;;;;37.60;96760.00;;;;8323896;28;20232;-78
2023/07/10 11:36:10;;;;;;;7.47;4.93;;;;;38.00;96741.00;;;;8349672;28;20204;-76
2023/07/10 11:40:42;;;;;;;11.35;5.85;;;;;38.90;96740.00;;;;8351230;28;20223;-79
2023/07/10 11:44:59;;;;;;;12.18;5.63;;;;;38.90;96735.00;;;;8347749;28;20279;-74
2023/07/10 11:49:15;;;;;;;11.80;5.47;;;;;38.70;96730.00;;;;8345777;28;20319;-78
2023/07/10 11:53:24;;;;;;;8.40;6.03;;;;;38.90;96731.00;;;;8334937;28;20239;-75
2023/07/10 11:57:30;;;;;;;7.57;5.68;;;;;38.80;96728.00;;;;8351959;28;20291;-77
2023/07/10 12:01:36;;;;;;;13.23;6.03;;;;;38.80;96727.00;;;;8342197;28;20211;-77
2023/07/10 12:05:40;;;;;;;11.65;6.10;;;;;38.90;96722.00;;;;8345020;28;20654;-75
2023/07/10 12:09:52;;;;;;;9.45;6.32;;;;;39.40;96710.00;;;;8342607;28;20229;-75
2023/07/10 12:13:55;;;;;;;9.57;5.43;;;;;39.40;96701.00;;;;8345612;28;20714;-75
2023/07/10 12:17:58;;;;;;;11.63;5.32;;;;;39.50;96692.00;;;;8344255;28;20254;-76
2023/07/10 12:22:04;;;;;;;12.20;5.88;;;;;39.40;96700.00;;;;8350927;28;20235;-76
2023/07/10 12:26:19;;;;;;;8.88;6.18;;;;;39.20;96707.00;;;;8353642;28;20300;-77
2023/07/10 12:30:42;;;;;;;6.72;5.45;;;;;39.00;96704.00;;;;8333417;28;20233;-74
2023/07/10 12:34:49;;;;;;;8.60;6.15;;;;;38.30;96707.00;;;;8340236;28;20875;-76
2023/07/10 12:38:59;;;;;;;10.48;6.13;;;;;37.20;96692.00;;;;8322331;28;20229;-75
2023/07/10 12:43:19;;;;;;;12.50;6.90;;;;;37.60;96683.00;;;;8324917;28;20293;-77
2023/07/10 12:47:23;;;;;;;11.40;6.07;;;;;37.90;96702.00;;;;8333141;28;20284;-77
2023/07/10 12:51:32;;;;;;;7.60;5.97;;;;;37.60;96686.00;;;;8341749;28;20279;-78
2023/07/10 12:55:40;;;;;;;13.07;6.22;;;;;37.00;96701.00;;;;8336286;28;20293;-77
2023/07/10 12:59:55;;;;;;;10.65;6.70;;;;;36.00;96705.00;;;;8337687;28;20197;-77
2023/07/10 13:04:21;;;;;;;8.40;5.80;;;;;35.70;96709.00;;;;8340261;28;20248;-77
2023/07/10 13:08:32;;;;;;;9.50;6.03;;;;;35.60;96717.00;;;;8348814;28;20208;-74
2023/07/10 13:12:40;;;;;;;10.35;6.47;;;;;35.70;96703.00;;;;8350217;28;20232;-76
2023/07/10 13:16:45;;;;;;;14.45;6.40;;;;;35.30;96697.00;;;;8343296;28;20328;-77
2023/07/10 13:20:49;;;;;;;10.25;6.00;;;;;34.80;96700.00;;;;8342983;28;20799;-75
2023/07/10 13:24:52;;;;;;;11.70;7.25;;;;;34.70;96704.00;;;;8345425;28;20296;-78
2023/07/10 13:28:57;;;;;;;6.68;5.55;;;;;35.70;96696.00;;;;8331775;28;20316;-76
2023/07/10 13:33:00;;;;;;;9.20;6.35;;;;;36.30;96698.00;;;;8343837;28;20312;-76
2023/07/10 13:37:19;;;;;;;9.25;6.13;;;;;36.70;96692.00;;;;8337446;28;20200;-78
2023/07/10 13:41:26;;;;;;;9.15;6.18;;;;;36.70;96685.00;;;;8350809;28;20284;-76
2023/07/10 13:45:34;;;;;;;11.30;6.05;;;;;36.60;96682.00;;;;8344007;28;20259;-77
2023/07/10 13:49:37;;;;;;;11.15;5.50;;;;;36.20;96693.00;;;;8331803;28;20657;-77
2023/07/10 13:53:42;;;;;;;9.75;6.13;;;;;36.10;96699.00;;;;8336608;28;20237;-76
2023/07/10 13:57:45;;;;;;;11.00;5.55;;;;;36.20;96700.00;;;;8345473;28;20737;-78
2023/07/10 14:01:50;;;;;;;10.35;6.00;;;;;36.20;96697.00;;;;8337632;28;20603;-77
2023/07/10 14:05:59;;;;;;;8.30;5.78;;;;;36.30;96695.00;;;;8342498;28;20205;-77
2023/07/10 14:10:04;;;;;;;8.55;6.00;;;;;36.60;96689.00;;;;8339723;28;20312;-78
2023/07/10 14:14:15;;;;;;;10.82;5.88;;;;;36.50;96678.00;;;;8337565;28;20197;-77
2023/07/10 14:18:23;;;;;;;10.80;5.63;;;;;36.60;96688.00;;;;8314264;28;20212;-75
2023/07/10 14:22:26;;;;;;;7.68;5.03;;;;;37.10;96688.00;;;;8339318;28;20200;-76
2023/07/10 14:26:35;;;;;;;7.10;4.50;;;;;37.50;96676.00;;;;8344018;28;20266;-77
2023/07/10 14:30:38;;;;;;;6.93;3.83;;;;;37.30;96687.00;;;;8341096;28;20216;-78
2023/07/10 14:34:48;;;;;;;5.43;3.63;;;;;36.80;96679.00;;;;8326251;28;20801;-77
2023/07/10 14:38:58;;;;;;;7.82;3.95;;;;;37.10;96677.00;;;;8335559;28;20228;-76
2023/07/10 14:43:03;;;;;;;5.22;4.00;;;;;37.20;96667.00;;;;8337335;28;20690;-76
2023/07/10 14:47:17;;;;;;;17.63;6.85;;;;;37.70;96656.00;;;;8341312;28;20219;-75
2023/07/10 14:51:26;;;;;;;5.30;3.75;;;;;37.90;96665.00;;;;8342745;28;20243;-76
2023/07/10 14:55:32;;;;;;;9.18;4.38;;;;;37.70;96664.00;;;;8345695;28;20701;-77
2023/07/10 14:59:35;;;;;;;5.97;4.30;;;;;37.60;96657.00;;;;8319766;28;20200;-77
2023/07/10 15:03:42;;;;;;;7.78;4.07;;;;;37.70;96652.00;;;;8348527;28;21025;-76
2023/07/10 15:07:47;;;;;;;5.03;4.07;;;;;37.80;96647.00;;;;8342760;28;20209;-77
2023/07/10 15:11:52;;;;;;;7.13;4.10;;;;;37.90;96658.00;;;;8333811;28;20263;-76
2023/07/10 15:16:02;;;;;;;3.90;3.58;;;;;37.80;96668.00;;;;8333725;28;20201;-76
2023/07/10 15:20:14;;;;;;;6.50;4.13;;;;;37.50;96673.00;;;;8330798;28;20570;-76
2023/07/10 15:24:24;;;;;;;5.25;3.78;;;;;37.40;96647.00;;;;8336338;28;20635;-75
2023/07/10 15:28:27;;;;;;;4.78;3.50;;;;;37.50;96657.00;;;;8341937;28;20305;-76
2023/07/10 15:32:37;;;;;;;4.70;3.60;;;;;36.80;96645.00;;;;8330206;28;20251;-77
2023/07/10 15:36:40;;;;;;;7.38;4.20;;;;;36.50;96654.00;;;;8342043;28;21025;-77
2023/07/10 15:40:52;;;;;;;6.15;4.18;;;;;36.80;96659.00;;;;8331948;28;20201;-79
2023/07/10 15:44:55;;;;;;;7.25;4.10;;;;;36.70;96648.00;;;;8345359;28;20232;-77
2023/07/10 15:48:58;;;;;;;4.55;4.07;;;;;36.60;96645.00;;;;8341130;28;20201;-77
2023/07/10 15:53:02;;;;;;;5.35;4.40;;;;;36.60;96650.00;;;;8332363;28;20228;-77
2023/07/10 15:57:09;;;;;;;4.63;3.80;;;;;36.40;96642.00;;;;8317786;28;20206;-77
2023/07/10 16:01:18;;;;;;;6.65;4.13;;;;;36.10;96639.00;;;;8321529;28;20203;-80
2023/07/10 16:05:25;;;;;;;5.15;3.90;;;;;36.30;96639.00;;;;8346852;28;20267;-77
2023/07/10 16:09:31;;;;;;;4.93;3.67;;;;;36.30;96643.00;;;;8333243;28;20330;-77
2023/07/10 16:13:39;;;;;;;6.15;4.03;;;;;36.60;96641.00;;;;8340309;28;20221;-75
2023/07/10 16:17:44;;;;;;;4.25;3.85;;;;;36.70;96650.00;;;;8334333;28;20213;-74
2023/07/10 16:21:52;;;;;;;4.95;3.95;;;;;36.70;96627.00;;;;8344638;28;20209;-75
2023/07/10 16:25:57;;;;;;;6.88;4.28;;;;;36.50;96643.00;;;;8345240;28;20208;-74
2023/07/10 16:30:01;;;;;;;4.82;4.32;;;;;36.40;96638.00;;;;8338527;28;20331;-73
2023/07/10 16:34:06;;;;;;;4.22;3.83;;;;;36.10;96648.00;;;;8339579;28;20916;-74
2023/07/10 16:38:15;;;;;;;9.48;4.05;;;;;35.70;96642.00;;;;8341190;28;20799;-74
2023/07/10 16:42:19;;;;;;;6.10;4.22;;;;;35.70;96648.00;;;;8339004;28;20208;-73
2023/07/10 16:46:25;;;;;;;4.85;3.60;;;;;35.70;96645.00;;;;8321609;28;20229;-74
2023/07/10 16:50:31;;;;;;;6.20;4.05;;;;;35.80;96653.00;;;;8334773;28;21978;-73
2023/07/10 16:54:36;;;;;;;7.30;4.25;;;;;35.90;96644.00;;;;8337006;28;20255;-74
2023/07/10 16:58:42;;;;;;;4.22;3.80;;;;;35.90;96654.00;;;;8336638;28;20200;-71
2023/07/10 17:02:56;;;;;;;4.70;4.07;;;;;35.80;96650.00;;;;8337275;28;20264;-73
2023/07/10 17:07:01;;;;;;;5.35;4.50;;;;;36.00;96655.00;;;;8335569;28;20769;-74
2023/07/10 17:11:04;;;;;;;10.25;4.68;;;;;35.90;96650.00;;;;8336411;28;20232;-74
2023/07/10 17:15:14;;;;;;;4.65;3.90;;;;;35.60;96643.00;;;;8336707;28;20235;-74
2023/07/10 17:19:18;;;;;;;5.35;3.97;;;;;35.20;96639.00;;;;8346149;28;20292;-74
2023/07/10 17:23:23;;;;;;;4.88;3.92;;;;;35.10;96640.00;;;;8341114;28;20204;-74
2023/07/10 17:27:28;;;;;;;5.00;3.85;;;;;34.90;96647.00;;;;8340992;28;20581;-74
2023/07/10 17:31:36;;;;;;;5.25;3.85;;;;;34.80;96650.00;;;;8343021;28;20811;-74
2023/07/10 17:35:40;;;;;;;4.18;3.75;;;;;34.80;96652.00;;;;8344443;28;20217;-74
2023/07/10 17:39:44;;;;;;;8.57;3.92;;;;;34.90;96646.00;;;;8344889;28;20232;-73
2023/07/10 17:43:53;;;;;;;7.25;4.63;;;;;34.90;96647.00;;;;8346461;28;20292;-73
2023/07/10 17:47:56;;;;;;;6.97;4.20;;;;;34.80;96646.00;;;;8345013;28;20284;-73
2023/07/10 17:52:01;;;;;;;7.13;3.78;;;;;34.50;96651.00;;;;8338281;28;20231;-73
2023/07/10 17:56:07;;;;;;;5.35;4.30;;;;;34.50;96641.00;;;;8340163;28;20197;-73
2023/07/10 18:00:17;;;;;;;6.18;3.63;;;;;34.30;96645.00;;;;8348021;28;20219;-73
2023/07/10 18:04:26;;;;;;;4.55;3.72;;;;;33.60;96642.00;;;;8341333;28;20245;-74
2023/07/10 18:08:32;;;;;;;5.10;3.90;;;;;33.10;96642.00;;;;8345476;28;20788;-74
2023/07/10 18:12:35;;;;;;;4.80;3.92;;;;;32.60;96653.00;;;;8347446;28;20319;-74
2023/07/10 18:16:41;;;;;;;5.57;4.05;;;;;32.20;96655.00;;;;8342383;28;20213;-74
2023/07/10 18:20:44;;;;;;;4.30;3.90;;;;;32.00;96659.00;;;;8338808;28;20200;-73
2023/07/10 18:24:49;;;;;;;7.38;4.00;;;;;31.70;96666.00;;;;8342531;28;20291;-72
2023/07/10 18:28:55;;;;;;;7.20;3.95;;;;;31.40;96665.00;;;;8347422;28;20256;-73
2023/07/10 18:32:58;;;;;;;6.60;3.97;;;;;31.10;96669.00;;;;8335843;28;20312;-72
2023/07/10 18:37:01;;;;;;;6.43;3.97;;;;;30.90;96673.00;;;;8351719;28;20602;-72
2023/07/10 18:41:15;;;;;;;4.38;3.92;;;;;30.60;96671.00;;;;8341546;28;20240;-77
2023/07/10 18:45:21;;;;;;;7.65;3.80;;;;;30.40;96670.00;;;;8352658;28;20236;-78
2023/07/10 18:49:27;;;;;;;6.68;3.92;;;;;30.00;96666.00;;;;8345358;28;20196;-74
2023/07/10 18:53:32;;;;;;;5.28;3.67;;;;;29.40;96671.00;;;;8349304;28;20227;-77
2023/07/10 18:57:37;;;;;;;5.38;3.75;;;;;28.80;96672.00;;;;8350401;28;20765;-72
2023/07/10 19:01:41;;;;;;;6.82;4.15;;;;;28.20;96673.00;;;;8342486;28;20247;-73
2023/07/10 19:05:48;;;;;;;6.55;4.05;;;;;27.60;96672.00;;;;8350125;28;20232;-73
2023/07/10 19:09:52;;;;;;;4.47;3.80;;;;;27.10;96675.00;;;;8347806;28;20207;-73
2023/07/10 19:13:56;;;;;;;5.35;3.67;;;;;26.80;96674.00;;;;8345991;28;20430;-73
2023/07/10 19:18:00;;;;;;;9.15;4.05;;;;;26.50;96680.00;;;;8345671;28;20203;-72
2023/07/10 19:22:08;;;;;;;4.97;4.38;;;;;26.30;96673.00;;;;8341799;28;20823;-73
2023/07/10 19:26:12;;;;;;;7.32;4.07;;;;;26.10;96680.00;;;;8344061;28;20276;-72
2023/07/10 19:30:18;;;;;;;6.95;4.65;;;;;25.80;96674.00;;;;8347630;28;20216;-73
2023/07/10 19:34:25;;;;;;;7.00;4.57;;;;;25.60;96678.00;;;;8339526;28;20753;-73
2023/07/10 19:38:38;;;;;;;6.00;4.50;;;;;25.30;96680.00;;;;8340494;28;20251;-72
2023/07/10 19:42:44;;;;;;;5.47;4.07;;;;;25.10;96688.00;;;;8339546;28;20270;-72
2023/07/10 19:46:52;;;;;;;7.75;5.07;;;;;25.00;96687.00;;;;8342034;28;20283;-72
2023/07/10 19:50:55;;;;;;;9.20;4.53;;;;;24.80;96698.00;;;;8330976;28;20208;-72
2023/07/10 19:55:01;;;;;;;6.90;4.47;;;;;24.60;96694.00;;;;8341301;28;20645;-72
2023/07/10 19:59:11;;;;;;;6.30;4.75;;;;;24.40;96695.00;;;;8346450;28;20223;-72
2023/07/10 20:03:23;;;;;;;8.20;4.95;;;;;24.30;96698.00;;;;8353790;28;20742;-72
2023/07/10 20:07:27;;;;;;;7.45;4.63;;;;;24.10;96698.00;;;;8350792;28;20292;-72
2023/07/10 20:11:31;;;;;;;5.55;4.70;;;;;23.90;96702.00;;;;8352804;28;20197;-72
2023/07/10 20:15:42;;;;;;;12.60;4.97;;;;;23.80;96697.00;;;;8349634;28;20213;-72
2023/07/10 20:19:48;;;;;;;6.10;4.70;;;;;23.60;96704.00;;;;8346203;28;20205;-71
2023/07/10 20:23:52;;;;;;;4.97;4.45;;;;;23.60;96692.00;;;;8344999;28;20292;-72
2023/07/10 20:27:58;;;;;;;7.75;4.70;;;;;23.50;96702.00;;;;8351580;28;20988;-71
2023/07/10 20:32:01;;;;;;;12.80;5.40;;;;;23.30;96699.00;;;;8346910;28;20654;-74